sensor_id;sensor_type;location;lat;lon;timestamp;P1;durP1;ratioP1;P2;durP2;ratioP2
7444;SDS011;3764;48.126;11.594;2023-07-16T00:02:01;6.63;;;6.00;;
7444;SDS011;3764;48.126;11.594;2023-07-16T00:04:28;7.33;;;5.90;;
7444;SDS011;3764;48.126;11.594;2023-07-16T00:06:58;7.30;;;5.70;;
7444;SDS011;3764;48.126;11.594;2023-07-16T00:09:26;6.83;;;6.13;;
7444;SDS011;3764;48.126;11.594;2023-07-16T00:11:53;7.63;;;5.87;;
7444;SDS011;3764;48.126;11.594;2023-07-16T00:14:20;6.40;;;5.80;;
7444;SDS011;3764;48.126;11.594;2023-07-16T00:16:47;7.70;;;6.33;;
7444;SDS011;3764;48.126;11.594;2023-07-16T00:19:14;7.73;;;5.97;;
7444;SDS011;3764;48.126;11.594;2023-07-16T00:21:41;7.60;;;5.20;;
7444;SDS011;3764;48.126;11.594;2023-07-16T00:24:10;7.63;;;6.13;;
7444;SDS011;3764;48.126;11.594;2023-07-16T00:26:37;7.70;;;6.30;;
7444;SDS011;3764;48.126;11.594;2023-07-16T00:29:04;11.40;;;6.53;;
7444;SDS011;3764;48.126;11.594;2023-07-16T00:31:31;8.17;;;6.80;;
7444;SDS011;3764;48.126;11.594;2023-07-16T00:33:58;7.83;;;6.47;;
7444;SDS011;3764;48.126;11.594;2023-07-16T00:36:25;7.07;;;6.20;;
7444;SDS011;3764;48.126;11.594;2023-07-16T00:38:52;18.33;;;5.90;;
7444;SDS011;3764;48.126;11.594;2023-07-16T00:41:20;6.97;;;6.27;;
7444;SDS011;3764;48.126;11.594;2023-07-16T00:43:47;5.87;;;5.17;;
7444;SDS011;3764;48.126;11.594;2023-07-16T00:46:15;6.20;;;5.60;;
7444;SDS011;3764;48.126;11.594;2023-07-16T00:48:42;6.20;;;5.60;;
7444;SDS011;3764;48.126;11.594;2023-07-16T00:51:10;6.60;;;6.00;;
7444;SDS011;3764;48.126;11.594;2023-07-16T00:53:38;8.73;;;7.47;;
7444;SDS011;3764;48.126;11.594;2023-07-16T00:56:05;7.17;;;6.47;;
7444;SDS011;3764;48.126;11.594;2023-07-16T00:58:36;8.80;;;6.13;;
7444;SDS011;3764;48.126;11.594;2023-07-16T01:01:03;8.97;;;6.10;;
7444;SDS011;3764;48.126;11.594;2023-07-16T01:03:30;8.10;;;6.03;;
7444;SDS011;3764;48.126;11.594;2023-07-16T01:05:57;7.60;;;6.40;;
7444;SDS011;3764;48.126;11.594;2023-07-16T01:08:31;6.63;;;5.70;;
7444;SDS011;3764;48.126;11.594;2023-07-16T01:11:02;9.27;;;6.40;;
7444;SDS011;3764;48.126;11.594;2023-07-16T01:13:30;10.73;;;6.80;;
7444;SDS011;3764;48.126;11.594;2023-07-16T01:15:59;9.63;;;6.90;;
7444;SDS011;3764;48.126;11.594;2023-07-16T01:18:26;7.10;;;5.80;;
7444;SDS011;3764;48.126;11.594;2023-07-16T01:20:53;9.83;;;6.50;;
7444;SDS011;3764;48.126;11.594;2023-07-16T01:23:27;7.90;;;7.10;;
7444;SDS011;3764;48.126;11.594;2023-07-16T01:26:19;8.83;;;6.63;;
7444;SDS011;3764;48.126;11.594;2023-07-16T01:32:00;8.70;;;6.57;;
7444;SDS011;3764;48.126;11.594;2023-07-16T01:34:29;9.93;;;7.07;;
7444;SDS011;3764;48.126;11.594;2023-07-16T01:36:59;8.43;;;6.30;;
7444;SDS011;3764;48.126;11.594;2023-07-16T01:39:26;9.90;;;7.30;;
7444;SDS011;3764;48.126;11.594;2023-07-16T01:41:53;8.00;;;6.90;;
7444;SDS011;3764;48.126;11.594;2023-07-16T01:44:21;10.00;;;7.30;;
7444;SDS011;3764;48.126;11.594;2023-07-16T01:46:53;7.53;;;6.70;;
7444;SDS011;3764;48.126;11.594;2023-07-16T01:49:31;8.20;;;6.60;;
7444;SDS011;3764;48.126;11.594;2023-07-16T01:51:59;8.20;;;7.40;;
7444;SDS011;3764;48.126;11.594;2023-07-16T01:54:27;10.63;;;7.30;;
7444;SDS011;3764;48.126;11.594;2023-07-16T01:56:54;8.23;;;6.77;;
7444;SDS011;3764;48.126;11.594;2023-07-16T01:59:21;8.17;;;7.00;;
7444;SDS011;3764;48.126;11.594;2023-07-16T02:01:49;9.13;;;6.50;;
7444;SDS011;3764;48.126;11.594;2023-07-16T02:04:16;8.40;;;6.73;;
7444;SDS011;3764;48.126;11.594;2023-07-16T02:06:44;11.33;;;7.47;;
7444;SDS011;3764;48.126;11.594;2023-07-16T02:09:13;9.37;;;7.03;;
7444;SDS011;3764;48.126;11.594;2023-07-16T02:11:40;9.93;;;7.33;;
7444;SDS011;3764;48.126;11.594;2023-07-16T02:14:07;8.40;;;7.60;;
7444;SDS011;3764;48.126;11.594;2023-07-16T02:16:35;13.20;;;8.00;;
7444;SDS011;3764;48.126;11.594;2023-07-16T02:19:03;8.20;;;7.40;;
7444;SDS011;3764;48.126;11.594;2023-07-16T02:21:31;9.77;;;8.57;;
7444;SDS011;3764;48.126;11.594;2023-07-16T02:23:58;8.10;;;6.90;;
7444;SDS011;3764;48.126;11.594;2023-07-16T02:26:25;7.20;;;6.50;;
7444;SDS011;3764;48.126;11.594;2023-07-16T02:28:52;7.83;;;7.03;;
7444;SDS011;3764;48.126;11.594;2023-07-16T02:31:19;8.13;;;7.00;;
7444;SDS011;3764;48.126;11.594;2023-07-16T02:33:46;10.50;;;7.10;;
7444;SDS011;3764;48.126;11.594;2023-07-16T02:36:14;8.70;;;7.90;;
7444;SDS011;3764;48.126;11.594;2023-07-16T02:38:41;8.13;;;7.33;;
7444;SDS011;3764;48.126;11.594;2023-07-16T02:41:08;8.60;;;7.20;;
7444;SDS011;3764;48.126;11.594;2023-07-16T02:43:36;9.23;;;6.97;;
7444;SDS011;3764;48.126;11.594;2023-07-16T02:46:03;8.30;;;7.40;;
7444;SDS011;3764;48.126;11.594;2023-07-16T02:48:30;9.40;;;7.63;;
7444;SDS011;3764;48.126;11.594;2023-07-16T02:50:57;7.80;;;7.00;;
7444;SDS011;3764;48.126;11.594;2023-07-16T02:53:25;9.60;;;7.37;;
7444;SDS011;3764;48.126;11.594;2023-07-16T02:55:52;9.80;;;6.57;;
7444;SDS011;3764;48.126;11.594;2023-07-16T02:58:19;10.10;;;8.03;;
7444;SDS011;3764;48.126;11.594;2023-07-16T03:00:46;8.60;;;7.00;;
7444;SDS011;3764;48.126;11.594;2023-07-16T03:03:13;7.77;;;7.07;;
7444;SDS011;3764;48.126;11.594;2023-07-16T03:05:40;9.70;;;7.70;;
7444;SDS011;3764;48.126;11.594;2023-07-16T03:08:08;7.30;;;5.80;;
7444;SDS011;3764;48.126;11.594;2023-07-16T03:10:36;6.13;;;5.53;;
7444;SDS011;3764;48.126;11.594;2023-07-16T03:13:03;6.97;;;6.27;;
7444;SDS011;3764;48.126;11.594;2023-07-16T03:15:30;5.73;;;5.20;;
7444;SDS011;3764;48.126;11.594;2023-07-16T03:17:57;5.40;;;4.90;;
7444;SDS011;3764;48.126;11.594;2023-07-16T03:20:24;7.90;;;5.70;;
7444;SDS011;3764;48.126;11.594;2023-07-16T03:22:52;6.17;;;4.70;;
7444;SDS011;3764;48.126;11.594;2023-07-16T03:25:19;5.60;;;4.80;;
7444;SDS011;3764;48.126;11.594;2023-07-16T03:27:47;9.43;;;4.80;;
7444;SDS011;3764;48.126;11.594;2023-07-16T03:30:14;5.23;;;4.73;;
7444;SDS011;3764;48.126;11.594;2023-07-16T03:32:41;7.40;;;4.63;;
7444;SDS011;3764;48.126;11.594;2023-07-16T03:35:09;4.60;;;4.20;;
7444;SDS011;3764;48.126;11.594;2023-07-16T03:37:36;5.40;;;4.90;;
7444;SDS011;3764;48.126;11.594;2023-07-16T03:40:12;6.27;;;4.97;;
7444;SDS011;3764;48.126;11.594;2023-07-16T03:42:41;6.43;;;5.23;;
7444;SDS011;3764;48.126;11.594;2023-07-16T03:45:09;4.50;;;4.10;;
7444;SDS011;3764;48.126;11.594;2023-07-16T03:47:37;4.93;;;4.33;;
7444;SDS011;3764;48.126;11.594;2023-07-16T03:50:05;6.37;;;5.10;;
7444;SDS011;3764;48.126;11.594;2023-07-16T03:52:33;5.37;;;4.43;;
7444;SDS011;3764;48.126;11.594;2023-07-16T03:55:00;5.67;;;3.43;;
7444;SDS011;3764;48.126;11.594;2023-07-16T03:57:27;7.20;;;4.50;;
7444;SDS011;3764;48.126;11.594;2023-07-16T03:59:55;5.13;;;4.40;;
7444;SDS011;3764;48.126;11.594;2023-07-16T04:02:24;10.47;;;4.90;;
7444;SDS011;3764;48.126;11.594;2023-07-16T04:04:51;5.53;;;5.03;;
7444;SDS011;3764;48.126;11.594;2023-07-16T04:07:19;5.10;;;3.97;;
7444;SDS011;3764;48.126;11.594;2023-07-16T04:09:46;5.20;;;4.57;;
7444;SDS011;3764;48.126;11.594;2023-07-16T04:12:13;4.60;;;4.20;;
7444;SDS011;3764;48.126;11.594;2023-07-16T04:14:40;5.47;;;4.20;;
7444;SDS011;3764;48.126;11.594;2023-07-16T04:17:07;7.00;;;4.50;;
7444;SDS011;3764;48.126;11.594;2023-07-16T04:19:35;6.03;;;4.73;;
7444;SDS011;3764;48.126;11.594;2023-07-16T04:22:03;4.67;;;4.03;;
7444;SDS011;3764;48.126;11.594;2023-07-16T04:24:30;5.90;;;3.93;;
7444;SDS011;3764;48.126;11.594;2023-07-16T04:26:57;7.03;;;4.13;;
7444;SDS011;3764;48.126;11.594;2023-07-16T04:29:25;5.33;;;4.73;;
7444;SDS011;3764;48.126;11.594;2023-07-16T04:31:52;6.30;;;4.60;;
7444;SDS011;3764;48.126;11.594;2023-07-16T04:34:19;6.80;;;4.30;;
7444;SDS011;3764;48.126;11.594;2023-07-16T04:36:47;5.93;;;4.57;;
7444;SDS011;3764;48.126;11.594;2023-07-16T04:39:14;6.13;;;3.30;;
7444;SDS011;3764;48.126;11.594;2023-07-16T04:41:42;5.80;;;3.90;;
7444;SDS011;3764;48.126;11.594;2023-07-16T04:44:09;7.30;;;3.30;;
7444;SDS011;3764;48.126;11.594;2023-07-16T04:46:36;3.03;;;2.33;;
7444;SDS011;3764;48.126;11.594;2023-07-16T04:49:04;3.33;;;2.80;;
7444;SDS011;3764;48.126;11.594;2023-07-16T04:51:31;6.13;;;2.40;;
7444;SDS011;3764;48.126;11.594;2023-07-16T04:54:00;4.37;;;2.97;;
7444;SDS011;3764;48.126;11.594;2023-07-16T04:56:27;3.50;;;2.47;;
7444;SDS011;3764;48.126;11.594;2023-07-16T04:58:54;3.90;;;2.73;;
7444;SDS011;3764;48.126;11.594;2023-07-16T05:01:21;2.57;;;2.20;;
7444;SDS011;3764;48.126;11.594;2023-07-16T05:03:48;3.43;;;2.23;;
7444;SDS011;3764;48.126;11.594;2023-07-16T05:06:15;2.93;;;2.60;;
7444;SDS011;3764;48.126;11.594;2023-07-16T05:08:42;3.23;;;2.93;;
7444;SDS011;3764;48.126;11.594;2023-07-16T05:11:11;7.60;;;2.67;;
7444;SDS011;3764;48.126;11.594;2023-07-16T05:13:38;4.27;;;2.83;;
7444;SDS011;3764;48.126;11.594;2023-07-16T05:16:06;5.30;;;3.13;;
7444;SDS011;3764;48.126;11.594;2023-07-16T05:18:33;5.27;;;3.43;;
7444;SDS011;3764;48.126;11.594;2023-07-16T05:21:00;3.00;;;2.70;;
7444;SDS011;3764;48.126;11.594;2023-07-16T05:23:27;5.67;;;3.23;;
7444;SDS011;3764;48.126;11.594;2023-07-16T05:25:54;3.33;;;2.73;;
7444;SDS011;3764;48.126;11.594;2023-07-16T05:28:22;3.87;;;3.00;;
7444;SDS011;3764;48.126;11.594;2023-07-16T05:30:57;7.43;;;3.53;;
7444;SDS011;3764;48.126;11.594;2023-07-16T05:33:25;5.63;;;3.03;;
7444;SDS011;3764;48.126;11.594;2023-07-16T05:35:52;3.80;;;2.70;;
7444;SDS011;3764;48.126;11.594;2023-07-16T05:38:19;3.57;;;3.27;;
7444;SDS011;3764;48.126;11.594;2023-07-16T05:40:46;3.70;;;2.50;;
7444;SDS011;3764;48.126;11.594;2023-07-16T05:43:13;3.77;;;2.70;;
7444;SDS011;3764;48.126;11.594;2023-07-16T05:45:42;2.60;;;2.37;;
7444;SDS011;3764;48.126;11.594;2023-07-16T05:48:09;4.17;;;2.77;;
7444;SDS011;3764;48.126;11.594;2023-07-16T05:50:36;3.83;;;2.63;;
7444;SDS011;3764;48.126;11.594;2023-07-16T05:53:04;3.27;;;2.80;;
7444;SDS011;3764;48.126;11.594;2023-07-16T05:55:31;2.70;;;2.47;;
7444;SDS011;3764;48.126;11.594;2023-07-16T05:57:58;3.63;;;2.67;;
7444;SDS011;3764;48.126;11.594;2023-07-16T06:00:25;4.70;;;3.13;;
7444;SDS011;3764;48.126;11.594;2023-07-16T06:02:53;3.87;;;3.23;;
7444;SDS011;3764;48.126;11.594;2023-07-16T06:05:21;3.40;;;3.10;;
7444;SDS011;3764;48.126;11.594;2023-07-16T06:07:49;3.20;;;2.90;;
7444;SDS011;3764;48.126;11.594;2023-07-16T06:10:16;5.87;;;3.77;;
7444;SDS011;3764;48.126;11.594;2023-07-16T06:12:43;3.20;;;2.90;;
7444;SDS011;3764;48.126;11.594;2023-07-16T06:15:11;3.50;;;2.73;;
7444;SDS011;3764;48.126;11.594;2023-07-16T06:17:38;6.40;;;2.80;;
7444;SDS011;3764;48.126;11.594;2023-07-16T06:20:07;5.53;;;3.17;;
7444;SDS011;3764;48.126;11.594;2023-07-16T06:22:34;3.90;;;3.10;;
7444;SDS011;3764;48.126;11.594;2023-07-16T06:25:02;5.53;;;2.60;;
7444;SDS011;3764;48.126;11.594;2023-07-16T06:27:29;3.97;;;3.40;;
7444;SDS011;3764;48.126;11.594;2023-07-16T06:29:56;3.60;;;3.10;;
7444;SDS011;3764;48.126;11.594;2023-07-16T06:32:24;5.63;;;3.50;;
7444;SDS011;3764;48.126;11.594;2023-07-16T06:34:51;4.13;;;3.57;;
7444;SDS011;3764;48.126;11.594;2023-07-16T06:37:19;3.93;;;3.17;;
7444;SDS011;3764;48.126;11.594;2023-07-16T06:39:48;4.40;;;4.00;;
7444;SDS011;3764;48.126;11.594;2023-07-16T06:42:15;4.90;;;4.10;;
7444;SDS011;3764;48.126;11.594;2023-07-16T06:44:42;5.30;;;4.37;;
7444;SDS011;3764;48.126;11.594;2023-07-16T06:47:10;4.50;;;3.63;;
7444;SDS011;3764;48.126;11.594;2023-07-16T06:49:37;7.93;;;4.00;;
7444;SDS011;3764;48.126;11.594;2023-07-16T06:52:04;4.30;;;3.73;;
7444;SDS011;3764;48.126;11.594;2023-07-16T06:54:34;4.43;;;4.03;;
7444;SDS011;3764;48.126;11.594;2023-07-16T06:57:01;6.40;;;3.80;;
7444;SDS011;3764;48.126;11.594;2023-07-16T06:59:28;6.20;;;4.47;;
7444;SDS011;3764;48.126;11.594;2023-07-16T07:01:55;4.57;;;3.57;;
7444;SDS011;3764;48.126;11.594;2023-07-16T07:04:22;5.43;;;4.20;;
7444;SDS011;3764;48.126;11.594;2023-07-16T07:06:49;5.43;;;3.50;;
7444;SDS011;3764;48.126;11.594;2023-07-16T07:09:16;6.63;;;4.33;;
7444;SDS011;3764;48.126;11.594;2023-07-16T07:11:45;5.17;;;3.33;;
7444;SDS011;3764;48.126;11.594;2023-07-16T07:14:12;4.57;;;3.40;;
7444;SDS011;3764;48.126;11.594;2023-07-16T07:16:39;5.80;;;5.20;;
7444;SDS011;3764;48.126;11.594;2023-07-16T07:19:07;3.53;;;3.23;;
7444;SDS011;3764;48.126;11.594;2023-07-16T07:21:35;2.83;;;2.63;;
7444;SDS011;3764;48.126;11.594;2023-07-16T07:24:02;5.60;;;3.23;;
7444;SDS011;3764;48.126;11.594;2023-07-16T07:26:29;2.60;;;2.30;;
7444;SDS011;3764;48.126;11.594;2023-07-16T07:28:58;3.07;;;2.50;;
7444;SDS011;3764;48.126;11.594;2023-07-16T07:31:25;2.77;;;2.00;;
7444;SDS011;3764;48.126;11.594;2023-07-16T07:33:52;2.90;;;2.07;;
7444;SDS011;3764;48.126;11.594;2023-07-16T07:36:19;5.00;;;2.33;;
7444;SDS011;3764;48.126;11.594;2023-07-16T07:38:46;2.27;;;2.07;;
7444;SDS011;3764;48.126;11.594;2023-07-16T07:41:14;5.07;;;3.53;;
7444;SDS011;3764;48.126;11.594;2023-07-16T07:43:41;4.67;;;2.20;;
7444;SDS011;3764;48.126;11.594;2023-07-16T07:46:09;3.13;;;2.83;;
7444;SDS011;3764;48.126;11.594;2023-07-16T07:48:36;4.37;;;3.00;;
7444;SDS011;3764;48.126;11.594;2023-07-16T07:51:04;2.23;;;2.03;;
7444;SDS011;3764;48.126;11.594;2023-07-16T07:53:31;2.40;;;2.20;;
7444;SDS011;3764;48.126;11.594;2023-07-16T07:55:58;3.07;;;2.30;;
7444;SDS011;3764;48.126;11.594;2023-07-16T07:58:25;3.23;;;2.70;;
7444;SDS011;3764;48.126;11.594;2023-07-16T08:00:52;3.60;;;2.63;;
7444;SDS011;3764;48.126;11.594;2023-07-16T08:03:20;6.83;;;3.33;;
7444;SDS011;3764;48.126;11.594;2023-07-16T08:05:48;2.80;;;2.17;;
7444;SDS011;3764;48.126;11.594;2023-07-16T08:08:15;2.93;;;2.20;;
7444;SDS011;3764;48.126;11.594;2023-07-16T08:10:42;2.10;;;1.90;;
7444;SDS011;3764;48.126;11.594;2023-07-16T08:13:11;2.23;;;1.90;;
7444;SDS011;3764;48.126;11.594;2023-07-16T08:15:38;3.03;;;2.50;;
7444;SDS011;3764;48.126;11.594;2023-07-16T08:18:05;2.93;;;2.10;;
7444;SDS011;3764;48.126;11.594;2023-07-16T08:20:35;3.40;;;2.00;;
7444;SDS011;3764;48.126;11.594;2023-07-16T08:23:02;2.07;;;1.87;;
7444;SDS011;3764;48.126;11.594;2023-07-16T08:25:29;2.33;;;2.00;;
7444;SDS011;3764;48.126;11.594;2023-07-16T08:27:56;3.10;;;2.27;;
7444;SDS011;3764;48.126;11.594;2023-07-16T08:30:23;2.87;;;2.20;;
7444;SDS011;3764;48.126;11.594;2023-07-16T08:32:50;3.50;;;3.20;;
7444;SDS011;3764;48.126;11.594;2023-07-16T08:35:17;2.57;;;1.93;;
7444;SDS011;3764;48.126;11.594;2023-07-16T08:37:46;2.60;;;2.40;;
7444;SDS011;3764;48.126;11.594;2023-07-16T08:40:13;2.57;;;1.80;;
7444;SDS011;3764;48.126;11.594;2023-07-16T08:42:41;2.37;;;2.00;;
7444;SDS011;3764;48.126;11.594;2023-07-16T08:45:12;2.90;;;2.37;;
7444;SDS011;3764;48.126;11.594;2023-07-16T08:47:40;2.27;;;2.07;;
7444;SDS011;3764;48.126;11.594;2023-07-16T08:50:08;1.90;;;1.70;;
7444;SDS011;3764;48.126;11.594;2023-07-16T08:52:36;2.40;;;1.83;;
7444;SDS011;3764;48.126;11.594;2023-07-16T08:55:07;2.10;;;1.90;;
7444;SDS011;3764;48.126;11.594;2023-07-16T08:57:34;5.83;;;1.83;;
7444;SDS011;3764;48.126;11.594;2023-07-16T09:00:02;2.50;;;1.97;;
7444;SDS011;3764;48.126;11.594;2023-07-16T09:02:30;3.17;;;2.00;;
7444;SDS011;3764;48.126;11.594;2023-07-16T09:04:57;1.80;;;1.60;;
7444;SDS011;3764;48.126;11.594;2023-07-16T09:07:26;1.70;;;1.50;;
7444;SDS011;3764;48.126;11.594;2023-07-16T09:09:56;2.60;;;1.97;;
7444;SDS011;3764;48.126;11.594;2023-07-16T09:12:26;2.13;;;1.73;;
7444;SDS011;3764;48.126;11.594;2023-07-16T09:14:54;2.63;;;2.43;;
7444;SDS011;3764;48.126;11.594;2023-07-16T09:17:22;2.50;;;2.27;;
7444;SDS011;3764;48.126;11.594;2023-07-16T09:19:49;2.60;;;2.10;;
7444;SDS011;3764;48.126;11.594;2023-07-16T09:22:17;2.17;;;1.97;;
7444;SDS011;3764;48.126;11.594;2023-07-16T09:24:45;2.17;;;1.90;;
7444;SDS011;3764;48.126;11.594;2023-07-16T09:27:12;3.40;;;2.40;;
7444;SDS011;3764;48.126;11.594;2023-07-16T09:29:41;3.40;;;2.23;;
7444;SDS011;3764;48.126;11.594;2023-07-16T09:32:08;3.40;;;2.30;;
7444;SDS011;3764;48.126;11.594;2023-07-16T09:34:35;2.23;;;2.03;;
7444;SDS011;3764;48.126;11.594;2023-07-16T09:37:03;2.23;;;2.03;;
7444;SDS011;3764;48.126;11.594;2023-07-16T09:39:31;2.87;;;2.20;;
7444;SDS011;3764;48.126;11.594;2023-07-16T09:41:59;2.67;;;1.90;;
7444;SDS011;3764;48.126;11.594;2023-07-16T09:44:28;2.60;;;2.07;;
7444;SDS011;3764;48.126;11.594;2023-07-16T09:46:57;2.30;;;2.10;;
7444;SDS011;3764;48.126;11.594;2023-07-16T09:49:25;2.80;;;2.30;;
7444;SDS011;3764;48.126;11.594;2023-07-16T09:51:55;2.40;;;2.20;;
7444;SDS011;3764;48.126;11.594;2023-07-16T09:54:24;2.93;;;2.37;;
7444;SDS011;3764;48.126;11.594;2023-07-16T09:56:54;2.33;;;2.13;;
7444;SDS011;3764;48.126;11.594;2023-07-16T09:59:24;2.20;;;1.90;;
7444;SDS011;3764;48.126;11.594;2023-07-16T10:01:54;2.50;;;1.93;;
7444;SDS011;3764;48.126;11.594;2023-07-16T10:04:23;3.47;;;2.13;;
7444;SDS011;3764;48.126;11.594;2023-07-16T10:06:53;4.00;;;2.43;;
7444;SDS011;3764;48.126;11.594;2023-07-16T10:09:31;2.27;;;2.07;;
7444;SDS011;3764;48.126;11.594;2023-07-16T10:12:15;2.30;;;2.10;;
7444;SDS011;3764;48.126;11.594;2023-07-16T10:14:44;2.20;;;2.00;;
7444;SDS011;3764;48.126;11.594;2023-07-16T10:17:13;1.80;;;1.70;;
7444;SDS011;3764;48.126;11.594;2023-07-16T10:19:49;3.83;;;2.30;;
7444;SDS011;3764;48.126;11.594;2023-07-16T10:22:18;1.70;;;1.50;;
7444;SDS011;3764;48.126;11.594;2023-07-16T10:24:54;2.43;;;2.00;;
7444;SDS011;3764;48.126;11.594;2023-07-16T10:27:28;2.70;;;2.07;;
7444;SDS011;3764;48.126;11.594;2023-07-16T10:29:56;2.83;;;2.37;;
7444;SDS011;3764;48.126;11.594;2023-07-16T10:32:26;2.03;;;1.83;;
7444;SDS011;3764;48.126;11.594;2023-07-16T10:34:56;3.70;;;2.27;;
7444;SDS011;3764;48.126;11.594;2023-07-16T10:37:23;3.00;;;2.33;;
7444;SDS011;3764;48.126;11.594;2023-07-16T10:39:51;2.70;;;2.50;;
7444;SDS011;3764;48.126;11.594;2023-07-16T10:42:20;2.97;;;2.67;;
7444;SDS011;3764;48.126;11.594;2023-07-16T10:44:49;3.30;;;2.33;;
7444;SDS011;3764;48.126;11.594;2023-07-16T10:47:18;3.83;;;2.60;;
7444;SDS011;3764;48.126;11.594;2023-07-16T10:49:47;2.90;;;2.60;;
7444;SDS011;3764;48.126;11.594;2023-07-16T10:52:16;2.37;;;2.17;;
7444;SDS011;3764;48.126;11.594;2023-07-16T10:54:43;3.10;;;2.40;;
7444;SDS011;3764;48.126;11.594;2023-07-16T10:57:10;2.10;;;1.90;;
7444;SDS011;3764;48.126;11.594;2023-07-16T10:59:38;2.87;;;2.30;;
7444;SDS011;3764;48.126;11.594;2023-07-16T11:02:08;2.30;;;2.10;;
7444;SDS011;3764;48.126;11.594;2023-07-16T11:04:37;2.97;;;2.23;;
7444;SDS011;3764;48.126;11.594;2023-07-16T11:07:05;2.50;;;2.30;;
7444;SDS011;3764;48.126;11.594;2023-07-16T11:09:39;1.70;;;1.60;;
7444;SDS011;3764;48.126;11.594;2023-07-16T11:12:08;2.20;;;2.00;;
7444;SDS011;3764;48.126;11.594;2023-07-16T11:14:36;2.13;;;1.80;;
7444;SDS011;3764;48.126;11.594;2023-07-16T11:17:04;2.07;;;1.87;;
7444;SDS011;3764;48.126;11.594;2023-07-16T11:19:33;2.27;;;1.83;;
7444;SDS011;3764;48.126;11.594;2023-07-16T11:22:01;2.63;;;2.43;;
7444;SDS011;3764;48.126;11.594;2023-07-16T11:24:31;2.80;;;2.60;;
7444;SDS011;3764;48.126;11.594;2023-07-16T11:27:05;2.40;;;2.20;;
7444;SDS011;3764;48.126;11.594;2023-07-16T11:29:38;2.90;;;2.50;;
7444;SDS011;3764;48.126;11.594;2023-07-16T11:32:07;2.47;;;2.20;;
7444;SDS011;3764;48.126;11.594;2023-07-16T11:34:35;3.30;;;2.23;;
7444;SDS011;3764;48.126;11.594;2023-07-16T11:37:09;3.67;;;2.60;;
7444;SDS011;3764;48.126;11.594;2023-07-16T11:39:38;2.90;;;2.50;;
7444;SDS011;3764;48.126;11.594;2023-07-16T11:42:05;2.73;;;2.53;;
7444;SDS011;3764;48.126;11.594;2023-07-16T11:44:33;2.70;;;2.40;;
7444;SDS011;3764;48.126;11.594;2023-07-16T11:47:01;2.53;;;2.33;;
7444;SDS011;3764;48.126;11.594;2023-07-16T11:49:28;3.77;;;3.00;;
7444;SDS011;3764;48.126;11.594;2023-07-16T11:51:56;3.30;;;2.43;;
7444;SDS011;3764;48.126;11.594;2023-07-16T11:54:24;7.73;;;2.70;;
7444;SDS011;3764;48.126;11.594;2023-07-16T11:56:52;2.67;;;2.47;;
7444;SDS011;3764;48.126;11.594;2023-07-16T11:59:19;3.00;;;2.70;;
7444;SDS011;3764;48.126;11.594;2023-07-16T12:01:47;2.87;;;2.50;;
7444;SDS011;3764;48.126;11.594;2023-07-16T12:04:15;2.93;;;2.73;;
7444;SDS011;3764;48.126;11.594;2023-07-16T12:06:43;2.93;;;2.60;;
7444;SDS011;3764;48.126;11.594;2023-07-16T12:09:10;2.70;;;2.50;;
7444;SDS011;3764;48.126;11.594;2023-07-16T12:11:37;2.80;;;2.50;;
7444;SDS011;3764;48.126;11.594;2023-07-16T12:14:06;3.20;;;2.90;;
7444;SDS011;3764;48.126;11.594;2023-07-16T12:16:34;7.23;;;6.63;;
7444;SDS011;3764;48.126;11.594;2023-07-16T12:19:00;3.80;;;3.50;;
7444;SDS011;3764;48.126;11.594;2023-07-16T12:21:28;3.67;;;3.33;;
7444;SDS011;3764;48.126;11.594;2023-07-16T12:23:55;3.50;;;3.20;;
7444;SDS011;3764;48.126;11.594;2023-07-16T12:26:22;3.63;;;2.90;;
7444;SDS011;3764;48.126;11.594;2023-07-16T12:28:49;2.70;;;2.50;;
7444;SDS011;3764;48.126;11.594;2023-07-16T12:31:17;3.00;;;2.80;;
7444;SDS011;3764;48.126;11.594;2023-07-16T12:33:45;3.33;;;3.03;;
7444;SDS011;3764;48.126;11.594;2023-07-16T12:36:13;3.13;;;2.87;;
7444;SDS011;3764;48.126;11.594;2023-07-16T12:38:40;2.60;;;2.40;;
7444;SDS011;3764;48.126;11.594;2023-07-16T12:41:07;2.57;;;2.37;;
7444;SDS011;3764;48.126;11.594;2023-07-16T12:43:34;3.30;;;3.00;;
7444;SDS011;3764;48.126;11.594;2023-07-16T12:46:02;3.37;;;2.50;;
7444;SDS011;3764;48.126;11.594;2023-07-16T12:48:31;3.40;;;2.93;;
7444;SDS011;3764;48.126;11.594;2023-07-16T12:50:58;3.47;;;3.03;;
7444;SDS011;3764;48.126;11.594;2023-07-16T12:53:26;4.07;;;3.03;;
7444;SDS011;3764;48.126;11.594;2023-07-16T12:55:53;2.67;;;2.47;;
7444;SDS011;3764;48.126;11.594;2023-07-16T12:58:20;3.10;;;2.80;;
7444;SDS011;3764;48.126;11.594;2023-07-16T13:00:47;2.73;;;2.53;;
7444;SDS011;3764;48.126;11.594;2023-07-16T13:03:14;3.87;;;3.20;;
7444;SDS011;3764;48.126;11.594;2023-07-16T13:05:44;3.40;;;3.10;;
7444;SDS011;3764;48.126;11.594;2023-07-16T13:08:12;3.30;;;3.00;;
7444;SDS011;3764;48.126;11.594;2023-07-16T13:10:39;3.60;;;3.30;;
7444;SDS011;3764;48.126;11.594;2023-07-16T13:13:07;4.10;;;3.27;;
7444;SDS011;3764;48.126;11.594;2023-07-16T13:15:34;3.93;;;3.63;;
7444;SDS011;3764;48.126;11.594;2023-07-16T13:18:01;5.57;;;4.90;;
7444;SDS011;3764;48.126;11.594;2023-07-16T13:20:28;4.13;;;3.70;;
7444;SDS011;3764;48.126;11.594;2023-07-16T13:22:57;3.83;;;3.17;;
7444;SDS011;3764;48.126;11.594;2023-07-16T13:25:25;4.23;;;3.50;;
7444;SDS011;3764;48.126;11.594;2023-07-16T13:27:54;4.67;;;4.27;;
7444;SDS011;3764;48.126;11.594;2023-07-16T13:30:22;4.13;;;3.53;;
7444;SDS011;3764;48.126;11.594;2023-07-16T13:32:49;3.40;;;3.10;;
7444;SDS011;3764;48.126;11.594;2023-07-16T13:35:16;5.30;;;3.83;;
7444;SDS011;3764;48.126;11.594;2023-07-16T13:37:43;8.00;;;7.20;;
7444;SDS011;3764;48.126;11.594;2023-07-16T13:40:12;5.60;;;5.03;;
7444;SDS011;3764;48.126;11.594;2023-07-16T13:42:40;4.87;;;4.37;;
7444;SDS011;3764;48.126;11.594;2023-07-16T13:45:07;3.73;;;3.37;;
7444;SDS011;3764;48.126;11.594;2023-07-16T13:47:35;3.93;;;3.40;;
7444;SDS011;3764;48.126;11.594;2023-07-16T13:50:02;3.77;;;3.47;;
7444;SDS011;3764;48.126;11.594;2023-07-16T13:52:29;4.33;;;3.60;;
7444;SDS011;3764;48.126;11.594;2023-07-16T13:54:56;6.03;;;4.13;;
7444;SDS011;3764;48.126;11.594;2023-07-16T13:57:25;6.20;;;5.60;;
7444;SDS011;3764;48.126;11.594;2023-07-16T13:59:53;4.10;;;3.70;;
7444;SDS011;3764;48.126;11.594;2023-07-16T14:02:20;3.63;;;3.33;;
7444;SDS011;3764;48.126;11.594;2023-07-16T14:04:47;4.37;;;3.63;;
7444;SDS011;3764;48.126;11.594;2023-07-16T14:07:14;3.90;;;3.50;;
7444;SDS011;3764;48.126;11.594;2023-07-16T14:09:41;3.53;;;3.23;;
7444;SDS011;3764;48.126;11.594;2023-07-16T14:12:08;8.90;;;4.43;;
7444;SDS011;3764;48.126;11.594;2023-07-16T14:14:37;4.13;;;3.83;;
7444;SDS011;3764;48.126;11.594;2023-07-16T14:17:04;3.67;;;3.37;;
7444;SDS011;3764;48.126;11.594;2023-07-16T14:19:31;4.10;;;3.07;;
7444;SDS011;3764;48.126;11.594;2023-07-16T14:21:58;3.73;;;3.40;;
7444;SDS011;3764;48.126;11.594;2023-07-16T14:24:26;3.30;;;3.00;;
7444;SDS011;3764;48.126;11.594;2023-07-16T14:26:53;3.10;;;2.90;;
7444;SDS011;3764;48.126;11.594;2023-07-16T14:29:20;6.33;;;3.60;;
7444;SDS011;3764;48.126;11.594;2023-07-16T14:31:48;4.60;;;2.93;;
7444;SDS011;3764;48.126;11.594;2023-07-16T14:34:15;3.60;;;3.30;;
7444;SDS011;3764;48.126;11.594;2023-07-16T14:36:42;4.67;;;3.70;;
7444;SDS011;3764;48.126;11.594;2023-07-16T14:39:10;3.70;;;2.93;;
7444;SDS011;3764;48.126;11.594;2023-07-16T14:41:37;3.87;;;3.47;;
7444;SDS011;3764;48.126;11.594;2023-07-16T14:44:04;3.97;;;3.57;;
7444;SDS011;3764;48.126;11.594;2023-07-16T14:46:31;3.90;;;3.50;;
7444;SDS011;3764;48.126;11.594;2023-07-16T14:48:59;4.17;;;3.40;;
7444;SDS011;3764;48.126;11.594;2023-07-16T14:51:27;3.70;;;3.40;;
7444;SDS011;3764;48.126;11.594;2023-07-16T14:53:55;4.33;;;3.87;;
7444;SDS011;3764;48.126;11.594;2023-07-16T14:56:22;4.40;;;3.23;;
7444;SDS011;3764;48.126;11.594;2023-07-16T14:58:49;3.70;;;3.40;;
7444;SDS011;3764;48.126;11.594;2023-07-16T15:01:16;3.30;;;3.00;;
7444;SDS011;3764;48.126;11.594;2023-07-16T15:03:43;4.47;;;4.00;;
7444;SDS011;3764;48.126;11.594;2023-07-16T15:06:12;3.90;;;3.20;;
7444;SDS011;3764;48.126;11.594;2023-07-16T15:08:40;3.30;;;3.00;;